createdAt,value
2022-10-19T00:04:45.427Z,102298.69
2022-10-19T00:09:48.173Z,102303.47
2022-10-19T00:14:51.009Z,102311.56
2022-10-19T00:19:55.113Z,102312.75
2022-10-19T00:24:58.278Z,102318.84
2022-10-19T00:30:01.407Z,102312.63
2022-10-19T00:35:06.234Z,102317.44
2022-10-19T00:40:10.489Z,102326.34
2022-10-19T00:45:17.311Z,102331.66
2022-10-19T00:50:21.906Z,102331.16
2022-10-19T00:55:25.491Z,102335.56
2022-10-19T01:00:28.733Z,102331.81
2022-10-19T01:05:34.882Z,102331.81
2022-10-19T01:10:48.131Z,102330.53
2022-10-19T01:16:00.576Z,102326.19
2022-10-19T01:21:26.103Z,102331.25
2022-10-19T01:27:06.366Z,102328.72
2022-10-19T01:32:15.399Z,102326.47
2022-10-19T01:37:28.223Z,102324.00
2022-10-19T01:42:38.548Z,102331.69
2022-10-19T01:47:48.427Z,102339.94
2022-10-19T01:52:52.755Z,102334.97
2022-10-19T01:58:01.419Z,102331.41
2022-10-19T02:03:07.970Z,102334.31
2022-10-19T02:08:16.637Z,102333.47
2022-10-19T02:13:20.939Z,102327.53
2022-10-19T02:18:29.204Z,102328.84
2022-10-19T02:23:31.998Z,102328.66
2022-10-19T02:28:35.666Z,102328.06
2022-10-19T02:33:40.189Z,102328.34
2022-10-19T02:38:43.417Z,102320.88
2022-10-19T02:43:50.504Z,102322.84
2022-10-19T02:48:56.183Z,102328.66
2022-10-19T02:54:01.281Z,102330.91
2022-10-19T02:59:07.007Z,102333.34
2022-10-19T03:04:11.164Z,102332.84
2022-10-19T03:09:13.942Z,102338.53
2022-10-19T03:14:16.708Z,102344.38
2022-10-19T03:19:20.817Z,102341.19
2022-10-19T03:24:23.682Z,102354.09
2022-10-19T03:29:26.685Z,102360.13
2022-10-19T03:34:30.991Z,102361.94
2022-10-19T03:39:33.756Z,102372.94
2022-10-19T03:44:36.524Z,102371.75
2022-10-19T03:49:40.709Z,102377.78
2022-10-19T03:54:43.593Z,102378.97
2022-10-19T03:59:46.332Z,102381.63
2022-10-19T04:04:50.506Z,102388.28
2022-10-19T04:09:53.290Z,102390.59
2022-10-19T04:14:57.663Z,102401.03
2022-10-19T04:20:02.156Z,102409.81
2022-10-19T04:25:05.924Z,102400.28
2022-10-19T04:30:09.517Z,102402.81
2022-10-19T04:35:13.873Z,102407.97
2022-10-19T04:40:16.655Z,102407.56
2022-10-19T04:45:19.479Z,102412.69
2022-10-19T04:50:23.753Z,102414.84
2022-10-19T04:55:31.718Z,102414.72
2022-10-19T05:00:34.666Z,102406.88
2022-10-19T05:05:38.927Z,102414.63
2022-10-19T05:10:45.442Z,102405.41
2022-10-19T05:15:57.037Z,102415.59
2022-10-19T05:21:05.781Z,102416.16
2022-10-19T05:26:11.355Z,102418.63
2022-10-19T05:31:16.914Z,102410.13
2022-10-19T05:36:26.028Z,102404.91
2022-10-19T05:41:28.901Z,102410.28
2022-10-19T05:46:33.243Z,102402.25
2022-10-19T05:51:37.346Z,102405.56
2022-10-19T05:56:41.814Z,102409.09
2022-10-19T06:01:45.082Z,102409.03
2022-10-19T06:06:49.234Z,102412.25
2022-10-19T06:11:52.032Z,102420.03
2022-10-19T06:16:54.822Z,102418.34
2022-10-19T06:21:58.968Z,102420.22
2022-10-19T06:27:01.716Z,102419.69
2022-10-19T06:32:04.697Z,102414.53
2022-10-19T06:37:08.804Z,102419.84
2022-10-19T06:42:11.724Z,102420.31
2022-10-19T06:47:14.770Z,102413.53
2022-10-19T06:52:19.215Z,102420.09
2022-10-19T06:57:21.961Z,102421.84
2022-10-19T07:02:24.852Z,102423.47
2022-10-19T07:07:29.021Z,102430.44
2022-10-19T07:12:32.191Z,102438.75
2022-10-19T07:17:35.139Z,102441.56
2022-10-19T07:22:39.533Z,102443.88
2022-10-19T07:27:42.490Z,102448.53
2022-10-19T07:32:47.128Z,102464.06
2022-10-19T07:37:51.365Z,102466.81
2022-10-19T07:42:55.038Z,102468.66
2022-10-19T07:47:57.893Z,102473.41
2022-10-19T07:53:03.452Z,102468.00
2022-10-19T07:58:06.163Z,102472.38
2022-10-19T08:03:57.104Z,102465.66
2022-10-19T08:08:34.148Z,102469.81
2022-10-19T08:13:37.009Z,102470.63
2022-10-19T08:18:39.711Z,102475.03
2022-10-19T08:23:43.880Z,102474.31
2022-10-19T08:28:46.973Z,102479.50
2022-10-19T08:33:50.942Z,102483.09
2022-10-19T08:38:55.110Z,102488.59
2022-10-19T08:44:11.277Z,102487.31
2022-10-19T08:49:19.941Z,102496.50
2022-10-19T08:54:25.266Z,102499.78
2022-10-19T08:59:37.703Z,102505.94
2022-10-19T09:04:43.747Z,102506.47
2022-10-19T09:09:52.139Z,102510.97
2022-10-19T09:14:57.339Z,102506.91
2022-10-19T09:20:14.239Z,102508.28
2022-10-19T09:25:21.517Z,102523.09
2022-10-19T09:30:25.270Z,102512.50
2022-10-19T09:35:35.178Z,102521.31
2022-10-19T09:40:39.423Z,102515.94
2022-10-19T09:45:49.771Z,102510.34
2022-10-19T09:50:56.718Z,102510.06
2022-10-19T09:56:04.658Z,102508.13
2022-10-19T10:01:07.459Z,102513.63
2022-10-19T10:06:15.349Z,102506.78
2022-10-19T10:11:28.281Z,102507.91
2022-10-19T10:16:33.691Z,102516.63
2022-10-19T10:21:48.173Z,102515.78
2022-10-19T10:26:54.966Z,102514.22
2022-10-19T10:32:07.310Z,102519.41
2022-10-19T10:37:24.406Z,102524.47
2022-10-19T10:42:32.177Z,102526.56
2022-10-19T10:47:39.830Z,102516.69
2022-10-19T10:52:57.995Z,102519.72
2022-10-19T10:58:16.162Z,102515.91
2022-10-19T11:03:25.672Z,102506.25
2022-10-19T11:08:33.158Z,102501.28
2022-10-19T11:13:44.823Z,102491.06
2022-10-19T11:18:51.906Z,102496.34
2022-10-19T11:24:08.984Z,102500.69
2022-10-19T11:29:28.852Z,102495.75
2022-10-19T11:34:53.166Z,102483.59
2022-10-19T11:40:11.132Z,102479.66
2022-10-19T11:45:25.142Z,102467.63
2022-10-19T11:50:37.472Z,102458.97
2022-10-19T11:55:47.930Z,102453.25
2022-10-19T12:01:00.098Z,102445.91
2022-10-19T12:06:12.755Z,102436.06
2022-10-19T12:11:32.246Z,102443.03
2022-10-19T12:16:41.984Z,102431.97
2022-10-19T12:21:46.736Z,102419.63
2022-10-19T12:26:51.645Z,102418.78
2022-10-19T12:31:58.429Z,102415.94
2022-10-19T12:37:08.342Z,102413.97
2022-10-19T12:42:21.157Z,102409.31
2022-10-19T12:47:26.767Z,102407.50
2022-10-19T12:52:43.106Z,102409.63
2022-10-19T12:57:50.295Z,102394.53
2022-10-19T13:03:01.885Z,102390.06
2022-10-19T13:08:10.611Z,102396.03
2022-10-19T13:13:57.696Z,102386.09
2022-10-19T13:19:18.221Z,102397.50
2022-10-19T13:24:29.145Z,102390.22
2022-10-19T13:29:42.868Z,102385.66
2022-10-19T13:34:47.948Z,102381.88
2022-10-19T13:39:51.142Z,102376.97
2022-10-19T13:44:54.470Z,102386.88
2022-10-19T13:50:35.878Z,102380.75
2022-10-19T13:55:55.450Z,102389.09
2022-10-19T14:01:23.779Z,102365.16
2022-10-19T14:06:34.539Z,102371.66
2022-10-19T14:11:40.039Z,102367.34
2022-10-19T14:16:48.575Z,102367.16
2022-10-19T14:21:52.665Z,102366.59
2022-10-19T14:26:55.793Z,102367.63
2022-10-19T14:31:59.982Z,102356.22
2022-10-19T14:37:04.266Z,102354.69
2022-10-19T14:42:11.340Z,102356.38
2022-10-19T14:47:22.737Z,102357.06
2022-10-19T14:52:32.675Z,102350.31
2022-10-19T14:57:40.039Z,102347.84
2022-10-19T15:02:46.387Z,102355.22
2022-10-19T15:07:51.316Z,102335.75
2022-10-19T15:13:02.373Z,102336.53
2022-10-19T15:18:07.054Z,102331.59
2022-10-19T15:23:33.305Z,102325.47
2022-10-19T15:28:41.441Z,102318.25
2022-10-19T15:33:47.767Z,102320.69
2022-10-19T15:39:17.620Z,102322.91
2022-10-19T15:44:34.618Z,102324.31
2022-10-19T15:49:58.277Z,102315.09
2022-10-19T15:55:02.941Z,102316.94
2022-10-19T16:00:13.865Z,102316.66
2022-10-19T16:05:16.820Z,102312.50
2022-10-19T16:10:23.002Z,102314.53
2022-10-19T16:15:26.605Z,102315.69
2022-10-19T16:20:30.976Z,102321.25
2022-10-19T16:25:35.324Z,102319.69
2022-10-19T16:30:38.240Z,102317.47
2022-10-19T16:35:41.167Z,102316.00
2022-10-19T16:40:45.469Z,102308.84
2022-10-19T16:45:48.405Z,102308.06
2022-10-19T16:51:34.054Z,102311.19
2022-10-19T16:56:44.545Z,102320.97
2022-10-19T17:01:48.090Z,102320.03
2022-10-19T17:06:53.468Z,102319.31
2022-10-19T17:11:58.117Z,102328.84
2022-10-19T17:17:00.950Z,102323.03
2022-10-19T17:22:05.203Z,102316.72
2022-10-19T17:27:09.619Z,102320.72
2022-10-19T17:32:15.037Z,102323.38
2022-10-19T17:37:17.982Z,102322.88
2022-10-19T17:42:23.867Z,102321.75
2022-10-19T17:47:30.486Z,102319.38
2022-10-19T17:52:33.890Z,102329.91
2022-10-19T17:57:38.180Z,102333.47
2022-10-19T18:02:45.641Z,102329.72
2022-10-19T18:07:51.487Z,102338.13
2022-10-19T18:12:56.258Z,102350.03
2022-10-19T18:18:05.524Z,102360.03
2022-10-19T18:23:08.463Z,102355.75
2022-10-19T18:28:13.281Z,102363.97
2022-10-19T18:33:23.645Z,102367.34
2022-10-19T18:38:29.607Z,102363.53
2022-10-19T18:43:39.804Z,102364.16
2022-10-19T18:48:42.880Z,102365.09
2022-10-19T18:53:53.000Z,102361.44
2022-10-19T18:58:58.039Z,102357.97
2022-10-19T19:04:08.252Z,102351.28
2022-10-19T19:09:14.903Z,102345.34
2022-10-19T19:14:22.088Z,102338.38
2022-10-19T19:19:27.664Z,102330.63
2022-10-19T19:24:56.837Z,102331.09
2022-10-19T19:30:04.119Z,102323.50
2022-10-19T19:35:50.536Z,102324.25
2022-10-19T19:40:58.668Z,102316.06
2022-10-19T19:46:08.135Z,102313.03
2022-10-19T19:51:14.912Z,102304.66
2022-10-19T19:56:18.635Z,102303.94
2022-10-19T20:01:32.449Z,102288.28
2022-10-19T20:06:37.015Z,102283.84
2022-10-19T20:11:42.688Z,102273.69
2022-10-19T20:16:47.318Z,102263.22
2022-10-19T20:21:50.581Z,102257.59
2022-10-19T20:26:54.543Z,102261.56
2022-10-19T20:31:58.821Z,102262.63
2022-10-19T20:37:01.904Z,102263.50
2022-10-19T20:42:05.139Z,102260.63
2022-10-19T20:47:09.292Z,102259.72
2022-10-19T20:52:12.330Z,102258.34
2022-10-19T20:57:15.566Z,102253.06
2022-10-19T21:02:19.809Z,102252.44
2022-10-19T21:07:22.608Z,102246.22
2022-10-19T21:12:25.424Z,102245.44
2022-10-19T21:22:38.622Z,102237.84
2022-10-19T21:27:41.734Z,102233.00
2022-10-19T21:32:48.457Z,102236.94
2022-10-19T21:37:51.229Z,102229.34
2022-10-19T21:42:54.041Z,102227.06
2022-10-19T21:47:58.141Z,102222.97
2022-10-19T21:53:00.981Z,102211.44
2022-10-19T21:58:04.673Z,102210.66
2022-10-19T22:03:09.294Z,102201.72
2022-10-19T22:08:12.083Z,102202.16
2022-10-19T22:13:14.850Z,102206.63
2022-10-19T22:18:18.984Z,102203.44
2022-10-19T22:23:21.731Z,102213.13
2022-10-19T22:28:24.501Z,102220.47
2022-10-19T22:33:28.645Z,102216.19
2022-10-19T22:38:31.388Z,102202.84
2022-10-19T22:43:34.258Z,102182.13
2022-10-19T22:48:38.390Z,102164.47
2022-10-19T22:53:41.406Z,102152.94
2022-10-19T22:58:44.200Z,102142.31
2022-10-19T23:03:48.331Z,102142.91
2022-10-19T23:08:51.162Z,102147.75
2022-10-19T23:13:53.972Z,102145.34
2022-10-19T23:18:58.118Z,102136.22
2022-10-19T23:24:01.200Z,102121.94
2022-10-19T23:29:04.241Z,102116.94
2022-10-19T23:34:08.348Z,102116.50
2022-10-19T23:39:11.100Z,102116.63
2022-10-19T23:44:13.994Z,102118.91
2022-10-19T23:49:18.135Z,102114.19
2022-10-19T23:54:20.919Z,102121.75
2022-10-19T23:59:23.956Z,102123.56
